createdAt,value
2023-06-12T00:00:43.719Z,0.00
2023-06-12T00:01:43.738Z,0.00
2023-06-12T00:02:43.802Z,0.00
2023-06-12T00:03:43.823Z,0.00
2023-06-12T00:04:43.783Z,0.00
2023-06-12T00:05:43.674Z,0.00
2023-06-12T00:06:45.621Z,0.00
2023-06-12T00:07:43.659Z,0.00
2023-06-12T00:08:43.644Z,0.00
2023-06-12T00:09:43.629Z,0.00
2023-06-12T00:10:43.626Z,0.00
2023-06-12T00:11:43.639Z,0.00
2023-06-12T00:12:43.592Z,0.00
2023-06-12T00:13:43.596Z,0.00
2023-06-12T00:14:43.585Z,0.00
2023-06-12T00:15:43.586Z,0.00
2023-06-12T00:16:43.792Z,0.00
2023-06-12T00:17:43.601Z,0.00
2023-06-12T00:18:43.566Z,0.00
2023-06-12T00:19:43.508Z,0.00
2023-06-12T00:20:43.517Z,0.00
2023-06-12T00:21:43.515Z,0.00
2023-06-12T00:22:43.547Z,0.00
2023-06-12T00:23:43.517Z,0.00
2023-06-12T00:24:43.459Z,0.00
2023-06-12T00:25:43.503Z,0.00
2023-06-12T00:26:43.476Z,0.00
2023-06-12T00:27:43.424Z,0.00
2023-06-12T00:28:43.422Z,0.00
2023-06-12T00:29:43.395Z,0.00
2023-06-12T00:30:43.409Z,0.00
2023-06-12T00:31:43.470Z,0.00
2023-06-12T00:32:43.452Z,0.00
2023-06-12T00:33:43.368Z,0.00
2023-06-12T00:34:43.376Z,0.00
2023-06-12T00:35:43.330Z,0.00
2023-06-12T00:36:43.343Z,0.00
2023-06-12T00:37:43.299Z,0.00
2023-06-12T00:38:43.310Z,0.00
2023-06-12T00:39:43.280Z,0.00
2023-06-12T00:40:43.327Z,0.00
2023-06-12T00:41:43.285Z,0.00
2023-06-12T00:42:43.252Z,0.00
2023-06-12T00:43:43.242Z,0.00
2023-06-12T00:44:43.232Z,0.00
2023-06-12T00:45:43.276Z,0.00
2023-06-12T00:46:43.212Z,0.00
2023-06-12T00:47:43.236Z,0.00
2023-06-12T00:48:43.190Z,0.00
2023-06-12T00:49:43.207Z,0.00
2023-06-12T00:50:43.170Z,0.00
2023-06-12T00:51:43.148Z,0.00
2023-06-12T00:52:43.142Z,0.00
2023-06-12T00:53:43.140Z,0.00
2023-06-12T00:54:43.120Z,0.00
2023-06-12T00:55:43.116Z,0.00
2023-06-12T00:56:43.096Z,0.00
2023-06-12T00:57:43.075Z,0.00
2023-06-12T00:58:43.095Z,0.00
2023-06-12T00:59:43.085Z,0.00
2023-06-12T01:00:43.053Z,0.00
2023-06-12T01:01:43.131Z,0.00
2023-06-12T01:02:43.141Z,0.00
2023-06-12T01:03:43.059Z,0.00
2023-06-12T01:04:43.028Z,0.00
2023-06-12T01:05:42.997Z,0.00
2023-06-12T01:06:42.984Z,0.00
2023-06-12T01:07:42.975Z,0.00
2023-06-12T01:08:42.987Z,0.00
2023-06-12T01:09:42.948Z,0.00
2023-06-12T01:10:42.945Z,0.00
2023-06-12T01:11:42.928Z,0.00
2023-06-12T01:12:42.925Z,0.00
2023-06-12T01:13:42.921Z,0.00
2023-06-12T01:14:42.906Z,0.00
2023-06-12T01:15:42.883Z,0.00
2023-06-12T01:16:42.933Z,0.00
2023-06-12T01:17:42.914Z,0.00
2023-06-12T01:18:42.884Z,0.00
2023-06-12T01:19:42.847Z,0.00
2023-06-12T01:20:42.836Z,0.00
2023-06-12T01:21:42.820Z,0.00
2023-06-12T01:22:42.826Z,0.00
2023-06-12T01:23:42.823Z,0.00
2023-06-12T01:24:42.780Z,0.00
2023-06-12T01:25:42.772Z,0.00
2023-06-12T01:26:42.815Z,0.00
2023-06-12T01:27:42.762Z,0.00
2023-06-12T01:28:42.739Z,0.00
2023-06-12T01:29:42.728Z,0.00
2023-06-12T01:30:42.740Z,0.00
2023-06-12T01:31:42.760Z,0.00
2023-06-12T01:32:42.750Z,0.00
2023-06-12T01:33:42.695Z,0.00
2023-06-12T01:34:42.679Z,0.00
2023-06-12T01:35:42.669Z,0.00
2023-06-12T01:36:42.646Z,0.00
2023-06-12T01:37:42.653Z,0.00
2023-06-12T01:38:42.650Z,0.00
2023-06-12T01:39:42.620Z,0.00
2023-06-12T01:40:42.640Z,0.00
2023-06-12T01:41:42.600Z,0.00
2023-06-12T01:42:42.588Z,0.00
2023-06-12T01:43:42.593Z,0.00
2023-06-12T01:44:42.584Z,0.00
2023-06-12T01:45:42.576Z,0.00
2023-06-12T01:46:42.559Z,0.00
2023-06-12T01:47:42.541Z,0.00
2023-06-12T01:48:42.534Z,0.00
2023-06-12T01:49:42.534Z,0.00
2023-06-12T01:50:42.517Z,0.00
2023-06-12T01:51:42.491Z,0.00
2023-06-12T01:52:42.493Z,0.00
2023-06-12T01:53:42.482Z,0.00
2023-06-12T01:54:42.474Z,0.00
2023-06-12T01:55:42.495Z,0.00
2023-06-12T01:56:42.461Z,0.00
2023-06-12T01:57:42.461Z,0.00
2023-06-12T01:58:42.424Z,0.00
2023-06-12T01:59:42.426Z,0.00
2023-06-12T02:00:42.406Z,0.00
2023-06-12T02:01:42.436Z,0.00
2023-06-12T02:02:42.446Z,0.00
2023-06-12T02:03:42.435Z,0.00
2023-06-12T02:04:42.376Z,0.00
2023-06-12T02:05:42.350Z,0.00
2023-06-12T02:06:42.337Z,0.00
2023-06-12T02:07:42.333Z,0.00
2023-06-12T02:08:42.349Z,0.00
2023-06-12T02:09:42.320Z,0.00
2023-06-12T02:10:42.301Z,0.00
2023-06-12T02:11:42.278Z,0.00
2023-06-12T02:12:42.272Z,0.00
2023-06-12T02:13:42.278Z,0.00
2023-06-12T02:14:42.255Z,0.00
2023-06-12T02:15:42.235Z,0.00
2023-06-12T02:16:42.311Z,0.00
2023-06-12T02:17:42.278Z,0.00
2023-06-12T02:18:42.229Z,0.00
2023-06-12T02:19:42.226Z,0.00
2023-06-12T02:20:42.191Z,0.00
2023-06-12T02:21:42.177Z,0.00
2023-06-12T02:22:42.194Z,0.00
2023-06-12T02:23:42.198Z,0.00
2023-06-12T02:24:42.144Z,0.00
2023-06-12T02:25:42.134Z,0.00
2023-06-12T02:26:42.141Z,0.00
2023-06-12T02:27:42.114Z,0.00
2023-06-12T02:28:42.110Z,0.00
2023-06-12T02:29:42.095Z,0.00
2023-06-12T02:30:42.080Z,0.00
2023-06-12T02:31:42.162Z,0.00
2023-06-12T02:32:42.099Z,0.00
2023-06-12T02:33:42.043Z,0.00
2023-06-12T02:34:42.057Z,0.00
2023-06-12T02:35:42.035Z,4.00
2023-06-12T02:36:42.055Z,4.00
2023-06-12T02:37:42.038Z,4.00
2023-06-12T02:38:42.008Z,0.00
2023-06-12T02:39:41.979Z,4.00
2023-06-12T02:40:41.989Z,4.00
2023-06-12T02:41:41.973Z,4.00
2023-06-12T02:42:41.960Z,4.00
2023-06-12T02:43:41.939Z,4.00
2023-06-12T02:44:41.947Z,8.00
2023-06-12T02:45:41.952Z,4.00
2023-06-12T02:46:41.932Z,8.00
2023-06-12T02:47:41.920Z,8.00
2023-06-12T02:48:41.894Z,8.00
2023-06-12T02:49:41.874Z,8.00
2023-06-12T02:50:41.891Z,12.00
2023-06-12T02:51:41.869Z,12.00
2023-06-12T02:52:41.845Z,16.00
2023-06-12T02:53:41.851Z,20.00
2023-06-12T02:54:41.836Z,20.00
2023-06-12T02:55:41.830Z,24.00
2023-06-12T02:56:41.818Z,24.00
2023-06-12T02:57:41.792Z,32.00
2023-06-12T02:58:41.790Z,36.00
2023-06-12T02:59:41.785Z,40.00
2023-06-12T03:00:41.787Z,44.00
2023-06-12T03:01:41.808Z,52.00
2023-06-12T03:02:41.783Z,56.00
2023-06-12T03:03:41.740Z,60.00
2023-06-12T03:04:41.757Z,68.00
2023-06-12T03:05:41.714Z,76.00
2023-06-12T03:06:41.718Z,84.00
2023-06-12T03:07:41.682Z,96.00
2023-06-12T03:08:44.212Z,108.00
2023-06-12T03:09:41.675Z,116.00
2023-06-12T03:10:41.663Z,132.00
2023-06-12T03:11:41.710Z,148.00
2023-06-12T03:12:41.678Z,160.00
2023-06-12T03:13:41.633Z,172.00
2023-06-12T03:14:41.736Z,192.00
2023-06-12T03:15:41.662Z,208.00
2023-06-12T03:16:41.604Z,224.00
2023-06-12T03:17:41.610Z,244.00
2023-06-12T03:18:41.597Z,264.00
2023-06-12T03:19:41.574Z,284.00
2023-06-12T03:20:41.550Z,308.00
2023-06-12T03:21:41.538Z,332.00
2023-06-12T03:22:41.527Z,356.00
2023-06-12T03:23:41.558Z,384.00
2023-06-12T03:24:41.516Z,412.00
2023-06-12T03:25:41.497Z,436.00
2023-06-12T03:26:41.487Z,464.00
2023-06-12T03:27:41.474Z,488.00
2023-06-12T03:28:41.478Z,520.00
2023-06-12T03:29:41.449Z,548.00
2023-06-12T03:30:41.433Z,580.00
2023-06-12T03:31:41.453Z,608.00
2023-06-12T03:32:41.458Z,640.00
2023-06-12T03:33:41.413Z,676.00
2023-06-12T03:34:41.395Z,708.00
2023-06-12T03:35:41.413Z,744.00
2023-06-12T03:36:41.364Z,788.00
2023-06-12T03:37:41.381Z,824.00
2023-06-12T03:38:41.356Z,868.00
2023-06-12T03:39:41.341Z,916.00
2023-06-12T03:40:41.323Z,960.00
2023-06-12T03:41:41.320Z,1008.00
2023-06-12T03:42:41.314Z,1052.00
2023-06-12T03:43:41.312Z,1096.00
2023-06-12T03:44:41.286Z,1140.00
2023-06-12T03:45:41.266Z,1188.00
2023-06-12T03:46:41.408Z,1236.00
2023-06-12T03:47:41.293Z,1288.00
2023-06-12T03:48:41.246Z,1340.00
2023-06-12T03:49:41.247Z,1400.00
2023-06-12T03:50:41.264Z,1464.00
2023-06-12T03:51:41.209Z,1528.00
2023-06-12T03:52:41.220Z,1584.00
2023-06-12T03:53:41.191Z,1640.00
2023-06-12T03:54:41.174Z,1692.00
2023-06-12T03:55:41.171Z,1736.00
2023-06-12T03:56:41.178Z,1780.00
2023-06-12T03:57:41.144Z,1820.00
2023-06-12T03:58:41.142Z,1860.00
2023-06-12T03:59:41.143Z,1896.00
2023-06-12T04:00:41.114Z,1932.00
2023-06-12T04:01:41.121Z,1972.00
2023-06-12T04:02:41.158Z,2016.00
2023-06-12T04:03:41.221Z,2060.00
2023-06-12T04:04:41.101Z,2104.00
2023-06-12T04:05:41.069Z,2148.00
2023-06-12T04:06:41.055Z,2192.00
2023-06-12T04:07:41.045Z,2244.00
2023-06-12T04:08:41.127Z,2300.00
2023-06-12T04:09:41.021Z,2360.00
2023-06-12T04:10:41.011Z,2416.00
2023-06-12T04:11:41.006Z,2480.00
2023-06-12T04:12:41.000Z,2548.00
2023-06-12T04:13:40.974Z,2616.00
2023-06-12T04:14:41.492Z,2704.00
2023-06-12T04:15:41.007Z,2820.00
2023-06-12T04:16:40.969Z,2924.00
2023-06-12T04:17:40.944Z,3044.00
2023-06-12T04:18:40.920Z,3180.00
2023-06-12T04:19:40.913Z,3344.00
2023-06-12T04:20:40.939Z,3528.00
2023-06-12T04:21:40.884Z,3676.00
2023-06-12T04:22:40.881Z,3820.00
2023-06-12T04:23:40.902Z,3948.00
2023-06-12T04:24:40.860Z,4076.00
2023-06-12T04:25:40.859Z,4116.00
2023-06-12T04:26:40.836Z,4120.00
2023-06-12T04:27:40.834Z,4092.00
2023-06-12T04:28:40.821Z,4084.00
2023-06-12T04:29:40.811Z,4108.00
2023-06-12T04:30:40.787Z,4140.00
2023-06-12T04:31:40.868Z,4200.00
2023-06-12T04:32:40.927Z,4316.00
2023-06-12T04:33:40.778Z,4496.00
2023-06-12T04:34:40.762Z,4692.00
2023-06-12T04:35:40.745Z,4860.00
2023-06-12T04:36:40.737Z,4988.00
2023-06-12T04:37:40.709Z,5084.00
2023-06-12T04:38:40.727Z,5160.00
2023-06-12T04:39:40.695Z,5232.00
2023-06-12T04:40:40.699Z,5308.00
2023-06-12T04:41:40.664Z,5360.00
2023-06-12T04:42:40.657Z,5416.00
2023-06-12T04:43:40.660Z,5492.00
2023-06-12T04:44:40.660Z,5612.00
2023-06-12T04:45:40.641Z,5784.00
2023-06-12T04:46:40.633Z,5916.00
2023-06-12T04:47:40.632Z,6024.00
2023-06-12T04:48:40.681Z,6152.00
2023-06-12T04:49:40.584Z,6252.00
2023-06-12T04:50:40.578Z,6252.00
2023-06-12T04:51:40.594Z,6140.00
2023-06-12T04:52:40.569Z,5816.00
2023-06-12T04:53:40.553Z,5528.00
2023-06-12T04:54:40.532Z,5360.00
2023-06-12T04:55:40.528Z,5220.00
2023-06-12T04:56:40.532Z,5128.00
2023-06-12T04:57:40.658Z,5088.00
2023-06-12T04:58:40.498Z,5080.00
2023-06-12T04:59:40.480Z,5104.00
2023-06-12T05:00:40.485Z,5100.00
2023-06-12T05:01:40.450Z,5092.00
2023-06-12T05:02:40.585Z,5068.00
2023-06-12T05:03:40.468Z,5044.00
2023-06-12T05:04:40.433Z,5056.00
2023-06-12T05:05:40.420Z,5084.00
2023-06-12T05:06:40.409Z,5104.00
2023-06-12T05:07:40.406Z,5128.00
2023-06-12T05:08:40.379Z,5140.00
2023-06-12T05:09:40.377Z,5168.00
2023-06-12T05:10:40.366Z,5196.00
2023-06-12T05:11:40.410Z,5224.00
2023-06-12T05:12:40.349Z,5260.00
2023-06-12T05:13:40.332Z,5304.00
2023-06-12T05:14:40.319Z,5400.00
2023-06-12T05:15:40.297Z,5548.00
2023-06-12T05:16:40.420Z,5528.00
2023-06-12T05:17:40.319Z,5484.00
2023-06-12T05:18:40.267Z,5532.00
2023-06-12T05:19:40.259Z,5564.00
2023-06-12T05:20:40.295Z,5632.00
2023-06-12T05:21:40.249Z,5716.00
2023-06-12T05:22:40.234Z,5732.00
2023-06-12T05:23:40.249Z,5800.00
2023-06-12T05:24:40.231Z,5864.00
2023-06-12T05:25:40.214Z,5908.00
2023-06-12T05:26:40.220Z,5976.00
2023-06-12T05:27:41.745Z,6252.00
2023-06-12T05:28:40.174Z,7212.00
2023-06-12T05:29:40.161Z,7436.00
2023-06-12T05:30:40.232Z,6744.00
2023-06-12T05:31:40.131Z,6652.00
2023-06-12T05:32:40.171Z,6788.00
2023-06-12T05:33:43.528Z,6372.00
2023-06-12T05:34:40.126Z,6672.00
2023-06-12T05:35:40.096Z,7784.00
2023-06-12T05:36:40.078Z,8940.00
2023-06-12T05:37:40.071Z,9320.00
2023-06-12T05:38:40.070Z,9480.00
2023-06-12T05:39:40.066Z,8864.00
2023-06-12T05:40:40.052Z,8476.00
2023-06-12T05:41:40.049Z,8952.00
2023-06-12T05:42:40.016Z,9272.00
2023-06-12T05:43:40.015Z,9652.00
2023-06-12T05:44:40.030Z,9812.00
2023-06-12T05:45:39.974Z,9460.00
2023-06-12T05:46:40.026Z,9428.00
2023-06-12T05:47:40.013Z,9108.00
2023-06-12T05:48:39.946Z,9032.00
2023-06-12T05:49:43.577Z,8756.00
2023-06-12T05:50:39.991Z,9884.00
2023-06-12T05:51:43.741Z,11676.00
2023-06-12T05:52:40.722Z,12528.00
2023-06-12T05:53:39.908Z,12568.00
2023-06-12T05:54:39.995Z,13372.00
2023-06-12T05:55:39.878Z,13044.00
2023-06-12T05:56:39.865Z,10440.00
2023-06-12T05:57:39.841Z,10924.00
2023-06-12T05:58:39.860Z,13552.00
2023-06-12T05:59:39.860Z,17568.00
2023-06-12T06:00:39.828Z,18912.00
2023-06-12T06:01:39.802Z,20640.00
2023-06-12T06:02:39.896Z,22784.00
2023-06-12T06:03:39.916Z,23552.00
2023-06-12T06:04:42.135Z,25344.00
2023-06-12T06:05:39.857Z,24416.00
2023-06-12T06:06:39.755Z,23072.00
2023-06-12T06:07:39.740Z,23072.00
2023-06-12T06:08:39.740Z,23904.00
2023-06-12T06:09:39.715Z,24288.00
2023-06-12T06:10:39.797Z,24736.00
2023-06-12T06:11:39.707Z,24320.00
2023-06-12T06:12:39.704Z,25088.00
2023-06-12T06:13:39.689Z,25792.00
2023-06-12T06:14:39.709Z,25920.00
2023-06-12T06:15:39.648Z,26016.00
2023-06-12T06:16:53.525Z,26656.00
2023-06-12T06:17:40.740Z,27168.00
2023-06-12T06:18:39.630Z,27968.00
2023-06-12T06:19:39.664Z,27680.00
2023-06-12T06:20:39.620Z,28512.00
2023-06-12T06:21:39.612Z,29408.00
2023-06-12T06:22:39.660Z,30368.00
2023-06-12T06:23:39.616Z,31232.00
2023-06-12T06:24:39.574Z,31488.00
2023-06-12T06:25:39.583Z,32800.00
2023-06-12T06:26:39.554Z,33632.00
2023-06-12T06:27:39.530Z,33824.00
2023-06-12T06:28:39.529Z,33568.00
2023-06-12T06:29:39.516Z,33184.00
2023-06-12T06:30:39.496Z,33408.00
2023-06-12T06:31:39.557Z,33472.00
2023-06-12T06:32:39.507Z,34528.00
2023-06-12T06:33:39.463Z,33952.00
2023-06-12T06:34:39.467Z,35840.00
2023-06-12T06:35:39.461Z,35584.00
2023-06-12T06:36:39.444Z,35328.00
2023-06-12T06:37:39.428Z,35072.00
2023-06-12T06:38:39.423Z,32640.00
2023-06-12T06:39:39.407Z,36256.00
2023-06-12T06:40:39.389Z,38176.00
2023-06-12T06:41:39.455Z,38528.00
2023-06-12T06:42:39.373Z,38592.00
2023-06-12T06:43:39.358Z,39520.00
2023-06-12T06:44:39.345Z,39712.00
2023-06-12T06:45:39.342Z,40704.00
2023-06-12T06:46:39.419Z,41472.00
2023-06-12T06:47:39.364Z,43808.00
2023-06-12T06:48:39.330Z,44768.00
2023-06-12T06:49:39.301Z,46304.00
2023-06-12T06:50:39.289Z,47168.00
2023-06-12T06:51:39.278Z,47072.00
2023-06-12T06:52:39.281Z,46528.00
2023-06-12T06:53:39.256Z,43456.00
2023-06-12T06:54:39.240Z,47552.00
2023-06-12T06:55:39.241Z,46688.00
2023-06-12T06:56:39.251Z,46912.00
2023-06-12T06:57:39.208Z,47552.00
2023-06-12T06:58:39.227Z,45952.00
2023-06-12T06:59:39.196Z,48704.00
2023-06-12T07:00:39.185Z,41856.00
2023-06-12T07:01:39.188Z,51840.00
2023-06-12T07:02:39.237Z,38848.00
2023-06-12T07:03:39.186Z,51808.00
2023-06-12T07:04:39.157Z,31904.00
2023-06-12T07:05:39.142Z,29120.00
2023-06-12T07:06:39.124Z,25856.00
2023-06-12T07:07:52.078Z,35744.00
2023-06-12T07:08:40.115Z,29728.00
2023-06-12T07:09:39.094Z,33248.00
2023-06-12T07:10:39.077Z,45888.00
2023-06-12T07:11:39.156Z,30144.00
2023-06-12T07:12:39.071Z,33888.00
2023-06-12T07:13:39.061Z,28544.00
2023-06-12T07:14:39.035Z,36128.00
2023-06-12T07:15:39.062Z,28000.00
2023-06-12T07:16:39.048Z,29376.00
2023-06-12T07:17:39.084Z,32224.00
2023-06-12T07:18:38.989Z,39488.00
2023-06-12T07:19:39.016Z,58048.00
2023-06-12T07:20:38.975Z,40672.00
2023-06-12T07:21:38.963Z,38240.00
2023-06-12T07:22:39.057Z,25888.00
2023-06-12T07:23:38.967Z,33056.00
2023-06-12T07:24:38.940Z,47200.00
2023-06-12T07:25:38.941Z,64480.00
2023-06-12T07:26:38.913Z,56576.00
2023-06-12T07:27:38.900Z,26848.00
2023-06-12T07:28:38.924Z,26688.00
2023-06-12T07:29:38.896Z,27040.00
2023-06-12T07:30:38.865Z,28192.00
2023-06-12T07:31:38.880Z,28736.00
2023-06-12T07:32:38.853Z,31744.00
2023-06-12T07:33:38.857Z,63072.00
2023-06-12T07:34:38.826Z,57888.00
2023-06-12T07:35:38.831Z,56416.00
2023-06-12T07:36:38.816Z,72960.00
2023-06-12T07:37:38.800Z,31616.00
2023-06-12T07:38:38.818Z,60192.00
2023-06-12T07:39:38.858Z,49568.00
2023-06-12T07:40:38.792Z,52960.00
2023-06-12T07:41:38.765Z,32384.00
2023-06-12T07:42:38.757Z,27872.00
2023-06-12T07:43:38.817Z,34784.00
2023-06-12T07:44:38.743Z,64640.00
2023-06-12T07:45:38.735Z,64768.00
2023-06-12T07:46:38.731Z,62624.00
2023-06-12T07:47:38.809Z,66208.00
2023-06-12T07:48:38.681Z,69792.00
2023-06-12T07:49:38.679Z,75072.00
2023-06-12T07:50:38.659Z,77824.00
2023-06-12T07:51:38.660Z,56416.00
2023-06-12T07:52:38.743Z,77376.00
2023-06-12T07:53:39.565Z,74656.00
2023-06-12T07:54:38.610Z,26656.00
2023-06-12T07:55:38.638Z,48000.00
2023-06-12T07:56:38.594Z,23840.00
2023-06-12T07:57:38.586Z,24384.00
2023-06-12T07:58:38.580Z,26144.00
2023-06-12T07:59:38.579Z,24224.00
2023-06-12T08:00:38.601Z,71520.00
2023-06-12T08:01:38.636Z,72320.00
2023-06-12T08:02:38.750Z,71840.00
2023-06-12T08:03:38.611Z,75648.00
2023-06-12T08:04:38.529Z,57952.00
2023-06-12T08:05:38.521Z,70752.00
2023-06-12T08:06:38.542Z,81344.00
2023-06-12T08:07:38.479Z,79584.00
2023-06-12T08:08:38.514Z,80736.00
2023-06-12T08:09:38.470Z,72576.00
2023-06-12T08:10:38.517Z,73216.00
2023-06-12T08:11:38.447Z,71584.00
2023-06-12T08:12:38.433Z,73728.00
2023-06-12T08:13:38.443Z,74080.00
2023-06-12T08:14:38.430Z,78112.00
2023-06-12T08:15:38.409Z,77152.00
2023-06-12T08:16:38.447Z,42048.00
2023-06-12T08:17:38.449Z,76992.00
2023-06-12T08:18:38.408Z,75936.00
2023-06-12T08:19:38.380Z,77696.00
2023-06-12T08:20:38.398Z,82784.00
2023-06-12T08:21:38.351Z,81952.00
2023-06-12T08:22:38.496Z,70976.00
2023-06-12T08:23:38.341Z,70272.00
2023-06-12T08:24:38.347Z,74624.00
2023-06-12T08:25:38.324Z,70112.00
2023-06-12T08:26:38.311Z,74848.00
2023-06-12T08:27:38.292Z,73824.00
2023-06-12T08:28:38.286Z,80544.00
2023-06-12T08:29:38.297Z,83936.00
2023-06-12T08:30:38.311Z,84768.00
2023-06-12T08:31:38.348Z,81088.00
2023-06-12T08:32:38.281Z,80352.00
2023-06-12T08:33:38.263Z,77536.00
2023-06-12T08:34:38.248Z,83008.00
2023-06-12T08:35:38.214Z,83040.00
2023-06-12T08:36:38.210Z,82976.00
2023-06-12T08:37:38.221Z,82080.00
2023-06-12T08:38:38.190Z,87648.00
2023-06-12T08:39:38.173Z,86656.00
2023-06-12T08:40:38.250Z,91072.00
2023-06-12T08:41:38.190Z,89216.00
2023-06-12T08:42:38.151Z,94176.00
2023-06-12T08:43:38.149Z,96000.00
2023-06-12T08:44:38.142Z,98144.00
2023-06-12T08:45:38.130Z,93792.00
2023-06-12T08:46:38.161Z,96736.00
2023-06-12T08:47:38.134Z,92384.00
2023-06-12T08:48:38.088Z,92288.00
2023-06-12T08:49:38.078Z,94112.00
2023-06-12T08:50:38.086Z,90816.00
2023-06-12T08:51:38.123Z,93696.00
2023-06-12T08:52:38.055Z,94880.00
2023-06-12T08:53:38.035Z,93920.00
2023-06-12T08:54:38.042Z,93024.00
2023-06-12T08:55:38.060Z,95424.00
2023-06-12T08:56:38.052Z,97568.00
2023-06-12T08:57:37.998Z,94784.00
2023-06-12T08:58:38.000Z,95872.00
2023-06-12T08:59:37.985Z,95456.00
2023-06-12T09:00:38.028Z,95840.00
2023-06-12T09:01:38.053Z,103968.00
2023-06-12T09:02:38.026Z,106080.00
2023-06-12T09:03:38.080Z,109760.00
2023-06-12T09:04:38.064Z,108992.00
2023-06-12T09:05:37.957Z,111232.00
2023-06-12T09:06:37.937Z,107904.00
2023-06-12T09:07:37.908Z,100864.00
2023-06-12T09:08:37.904Z,103424.00
2023-06-12T09:09:37.891Z,99232.00
2023-06-12T09:10:37.889Z,102912.00
2023-06-12T09:11:37.908Z,103072.00
2023-06-12T09:12:37.917Z,105280.00
2023-06-12T09:13:37.886Z,108448.00
2023-06-12T09:14:37.883Z,109728.00
2023-06-12T09:15:38.928Z,103616.00
2023-06-12T09:16:37.926Z,109344.00
2023-06-12T09:17:37.828Z,99712.00
2023-06-12T09:18:37.882Z,98848.00
2023-06-12T09:19:37.821Z,101536.00
2023-06-12T09:20:43.074Z,94880.00
2023-06-12T09:21:38.808Z,94080.00
2023-06-12T09:22:37.775Z,91008.00
2023-06-12T09:23:37.832Z,90912.00
2023-06-12T09:24:37.760Z,99776.00
2023-06-12T09:25:37.767Z,91264.00
2023-06-12T09:26:37.761Z,90176.00
2023-06-12T09:27:37.727Z,85536.00
2023-06-12T09:28:38.149Z,75712.00
2023-06-12T09:29:37.739Z,82240.00
2023-06-12T09:30:37.694Z,86304.00
2023-06-12T09:31:37.775Z,96032.00
2023-06-12T09:32:37.799Z,103456.00
2023-06-12T09:33:37.682Z,108640.00
2023-06-12T09:34:37.734Z,105600.00
2023-06-12T09:35:37.654Z,100512.00
2023-06-12T09:36:37.639Z,103680.00
2023-06-12T09:37:37.675Z,101184.00
2023-06-12T09:38:37.651Z,106752.00
2023-06-12T09:39:37.625Z,107360.00
2023-06-12T09:40:37.644Z,99904.00
2023-06-12T09:41:37.599Z,94944.00
2023-06-12T09:42:37.594Z,89984.00
2023-06-12T09:43:37.611Z,87136.00
2023-06-12T09:44:37.581Z,107296.00
2023-06-12T09:45:37.562Z,101344.00
2023-06-12T09:46:37.557Z,73120.00
2023-06-12T09:47:37.673Z,74784.00
2023-06-12T09:48:37.581Z,93312.00
2023-06-12T09:49:37.535Z,102144.00
2023-06-12T09:50:37.520Z,111648.00
2023-06-12T09:51:37.511Z,111328.00
2023-06-12T09:52:37.869Z,105504.00
2023-06-12T09:53:37.510Z,111328.00
2023-06-12T09:54:37.506Z,109120.00
2023-06-12T09:55:37.472Z,113856.00
2023-06-12T09:56:37.467Z,117216.00
2023-06-12T09:57:37.467Z,117248.00
2023-06-12T09:58:37.453Z,114912.00
2023-06-12T09:59:38.353Z,111552.00
2023-06-12T10:00:37.422Z,111616.00
2023-06-12T10:01:37.500Z,104448.00
2023-06-12T10:02:37.460Z,109120.00
2023-06-12T10:03:37.508Z,105088.00
2023-06-12T10:04:37.427Z,112672.00
2023-06-12T10:05:37.391Z,111552.00
2023-06-12T10:06:37.386Z,109952.00
2023-06-12T10:07:37.428Z,110816.00
2023-06-12T10:08:37.370Z,108832.00
2023-06-12T10:09:37.352Z,92064.00
2023-06-12T10:10:37.342Z,80128.00
2023-06-12T10:11:37.362Z,81024.00
2023-06-12T10:12:37.354Z,73440.00
2023-06-12T10:13:37.327Z,67584.00
2023-06-12T10:14:37.351Z,69056.00
2023-06-12T10:15:37.354Z,61760.00
2023-06-12T10:16:37.357Z,72448.00
2023-06-12T10:17:37.300Z,88128.00
2023-06-12T10:18:37.279Z,92224.00
2023-06-12T10:19:37.270Z,90176.00
2023-06-12T10:20:37.268Z,93568.00
2023-06-12T10:21:37.250Z,88384.00
2023-06-12T10:22:37.257Z,85376.00
2023-06-12T10:23:37.300Z,79584.00
2023-06-12T10:24:37.246Z,93056.00
2023-06-12T10:25:37.231Z,96928.00
2023-06-12T10:26:37.216Z,93920.00
2023-06-12T10:27:37.204Z,87264.00
2023-06-12T10:28:37.181Z,96640.00
2023-06-12T10:29:37.282Z,102368.00
2023-06-12T10:30:37.212Z,105376.00
2023-06-12T10:31:37.214Z,121760.00
2023-06-12T10:32:37.168Z,123328.00
2023-06-12T10:33:37.148Z,112256.00
2023-06-12T10:34:37.171Z,86624.00
2023-06-12T10:35:37.161Z,77824.00
2023-06-12T10:36:37.130Z,97824.00
2023-06-12T10:37:38.069Z,108352.00
2023-06-12T10:38:37.096Z,112032.00
2023-06-12T10:39:37.105Z,104512.00
2023-06-12T10:40:47.770Z,86528.00
2023-06-12T10:41:38.108Z,84800.00
2023-06-12T10:42:37.060Z,75040.00
2023-06-12T10:43:51.187Z,90560.00
2023-06-12T10:44:38.125Z,95104.00
2023-06-12T10:45:37.137Z,66848.00
2023-06-12T10:46:37.081Z,67776.00
2023-06-12T10:47:37.088Z,83392.00
2023-06-12T10:48:37.019Z,126336.00
2023-06-12T10:49:37.018Z,129152.00
2023-06-12T10:50:37.062Z,107200.00
2023-06-12T10:51:36.989Z,119904.00
2023-06-12T10:52:36.992Z,127360.00
2023-06-12T10:53:36.977Z,123136.00
2023-06-12T10:54:37.379Z,119904.00
2023-06-12T10:55:36.963Z,116512.00
2023-06-12T10:56:36.972Z,112992.00
2023-06-12T10:57:36.947Z,113376.00
2023-06-12T10:58:36.945Z,116416.00
2023-06-12T10:59:36.954Z,91648.00
2023-06-12T11:00:37.044Z,91712.00
2023-06-12T11:01:36.950Z,119520.00
2023-06-12T11:02:37.093Z,115392.00
2023-06-12T11:03:36.947Z,117504.00
2023-06-12T11:04:37.169Z,128608.00
2023-06-12T11:05:37.042Z,120672.00
2023-06-12T11:06:36.906Z,116992.00
2023-06-12T11:07:36.903Z,116928.00
2023-06-12T11:08:36.920Z,121568.00
2023-06-12T11:09:36.841Z,114464.00
2023-06-12T11:10:36.835Z,118624.00
2023-06-12T11:11:36.822Z,129568.00
2023-06-12T11:12:51.824Z,112896.00
2023-06-12T11:13:37.788Z,115904.00
2023-06-12T11:14:36.798Z,126272.00
2023-06-12T11:15:36.786Z,115456.00
2023-06-12T11:16:36.808Z,113600.00
2023-06-12T11:17:36.794Z,122496.00
2023-06-12T11:18:36.755Z,108352.00
2023-06-12T11:19:36.734Z,114752.00
2023-06-12T11:20:36.735Z,114944.00
2023-06-12T11:21:36.726Z,108992.00
2023-06-12T11:22:36.709Z,117696.00
2023-06-12T11:23:36.755Z,124800.00
2023-06-12T11:24:36.870Z,124352.00
2023-06-12T11:25:36.839Z,115264.00
2023-06-12T11:26:36.715Z,113824.00
2023-06-12T11:27:36.674Z,104224.00
2023-06-12T11:28:36.683Z,85024.00
2023-06-12T11:29:52.250Z,85984.00
2023-06-12T11:30:46.093Z,92352.00
2023-06-12T11:31:37.643Z,23744.00
2023-06-12T11:32:36.757Z,20928.00
2023-06-12T11:33:36.673Z,20896.00
2023-06-12T11:34:39.959Z,21312.00
2023-06-12T11:35:36.627Z,25376.00
2023-06-12T11:36:36.591Z,113568.00
2023-06-12T11:40:36.562Z,70240.00
2023-06-12T11:41:36.553Z,104704.00
2023-06-12T11:42:36.561Z,112096.00
2023-06-12T11:43:36.538Z,99808.00
2023-06-12T11:44:36.556Z,100896.00
2023-06-12T11:45:36.520Z,114560.00
2023-06-12T11:46:36.561Z,108288.00
2023-06-12T11:49:36.600Z,113888.00
2023-06-12T11:50:36.467Z,122976.00
2023-06-12T11:51:36.459Z,109984.00
2023-06-12T11:52:36.450Z,111776.00
2023-06-12T11:53:36.465Z,111936.00
2023-06-12T11:57:36.411Z,121664.00
2023-06-12T11:58:36.439Z,115936.00
2023-06-12T11:59:36.401Z,118528.00
2023-06-12T12:00:36.427Z,121760.00
2023-06-12T12:01:36.422Z,111776.00
2023-06-12T12:02:36.509Z,114240.00
2023-06-12T12:03:36.446Z,116704.00
2023-06-12T12:04:36.413Z,108320.00
2023-06-12T12:05:36.355Z,110144.00
2023-06-12T12:06:36.332Z,109760.00
2023-06-12T12:07:37.239Z,111168.00
2023-06-12T12:08:36.397Z,114016.00
2023-06-12T12:09:37.317Z,117568.00
2023-06-12T12:10:36.304Z,122176.00
2023-06-12T12:11:36.313Z,117952.00
2023-06-12T12:12:36.362Z,32448.00
2023-06-12T12:13:36.279Z,34304.00
2023-06-12T12:14:36.282Z,31712.00
2023-06-12T12:15:36.295Z,117408.00
2023-06-12T12:16:36.328Z,114688.00